Airfield :
LOGIN :

Register | Disclaimer

   EN    FR    IT 

 










Legend :    VFR   Marginal VFR   IFR   Intensive IFR   Very Intensive IFR
Visi :
Ceiling :
>= 8 km
>= 3000ft
5 to 8 km
1000 to 3000 ft
1500m to 5 km
500 to 1000 ft
800 to 1500m
200 to 500 ft
< 800m
< 200 ft
Symbols :   Thunderstorms  Fog  Heavy snow  Heavy precipitations  Wind > 20 kt
SIGMETs :     Misc.  Thunderstorms  Icing  Turbulence  Mountain Waves  Volcanic Ashes






- Airport Elevation : 755 ft
- IATA code : KSC


LZKZ - Kosice

CURRENT METAR :
  • 291730Z 35011KT CAVOK 16/05 Q1017

EXPIRED METARs :
  • 291700Z 01012KT CAVOK 17/06 Q1017
  • 291630Z 36013KT 9999 SCT048 17/06 Q1017
  • 291600Z 36016KT 9999 SCT048 16/04 Q1017 NOSIG
  • 291530Z 01016KT 9999 SCT048 17/06 Q1017 NOSIG
  • 291500Z 36015KT 9999 SCT048 SCT100 18/06 Q1017 NOSIG

TAF TAF LZKZ
Valid from the 29 at 18:00 until the 30 at 18:00 UTC


291700Z 2918/3018 01014KT 9999 SCT040 BKN090
PROB40
TEMPO 2918/2919 SHRA FEW023CB BKN040
TEMPO 2918/2921 36015G25KT
TEMPO 3001/3006 06007KT
TEMPO 3012/3018 5000 SHRA SCT025TCU BKN050
PROB40
TEMPO 3015/3018 VRB18G28KT 4000 TSRA SCT023CB BKN030



MET'MAP, your aeronautical weather chart ! - Copyright ORBIFLY December 2007 - Disclaimer

ORBIFLY MET'MAP TEAM :

Programming & Development : Alexandra Zaïnal
Concept & original design : Baudouin d'Aumeries
Assistance for programming : Marc-Olivier Méhu
Technical & hardware support : Manuel Goepfert

Contact : metmap@orbifly.com




SOURCES & CREDITS :

   NOAA